• Join FlightAware (Why Join?)
  • Login
  • US Flag 
 
12:35PM EST


 

Airport Tracker/Info


-or-


 

Live Flight TrackerFlight Track Log ✈ ASH2638 ✈ 12-Apr-2013 ✈ KPHX - KONT

Flight Track Log - Related Links

Times and Time Zones

All times are in EDT time to prevent confusion due to time zone crossing. See the ASH2638 flight status page for this flight to view local times or setup timezone preferences in your user account.

Time Position Orientation Groundspeed Altitude Reporting Facility
EDT Latitude Longitude Course Direction KTS MPH feet Rate Location/Type
05:38PM 33.4333 -112.0500 273° West 191 220 1,800  Level Phoenix TRACON
05:38PM 33.4258 -112.0572 219° Southwest 181 208 2,200 1,500 Climbing Albuquerque Center
05:39PM 33.4031 -112.1269 249° West 221 254 3,900 1,980 Climbing Albuquerque Center
05:40PM 33.3875 -112.2156 258° West 271 312 6,400 2,520 Climbing Albuquerque Center
05:41PM 33.4360 -112.4470 273° West  Level FlightAware Approximate
05:41PM 33.3967 -112.3078 277° West 278 320 9,100  Level Albuquerque Center
05:42PM 33.4405 -112.5586 273° West  Level FlightAware Approximate
05:42PM 33.4100 -112.4294 278° West 312 359 11,300  Level Albuquerque Center
05:43PM 33.4450 -112.6702 273° West  Level FlightAware Approximate
05:43PM 33.4228 -112.5397 278° West 333 383 13,600  Level Albuquerque Center
05:44PM 33.4344 -112.6497 277° West 347 399 16,000 2,460 Climbing Albuquerque Center
05:45PM 33.4467 -112.7628 277° West 346 398 18,700 1,740 Climbing Albuquerque Center
05:46PM 33.4625 -112.8792 279° West 352 405 19,600 1,140 Climbing Albuquerque Center
05:47PM 33.4931 -113.0342 283° West 390 449 21,100 1,800 Climbing Albuquerque Center
05:48PM 33.5197 -113.1644 284° West 403 464 23,400 1,980 Climbing Albuquerque Center
05:49PM 33.5431 -113.2908 283° West 395 455 25,200 1,500 Climbing Albuquerque Center
05:51PM 33.5669 -113.4189 283° West 395 455 26,500 1,200 Climbing Albuquerque Center
05:52PM 33.5919 -113.5492 283° West 399 459 27,700 1,200 Climbing Albuquerque Center
05:53PM 33.6150 -113.7103 280° West 408 470 29,000 1,020 Climbing Albuquerque Center
05:54PM 33.6261 -113.8339 276° West 416 479 29,900 780 Climbing Albuquerque Center
05:55PM 33.6403 -113.9767 277° West 426 490 30,700 780 Climbing Albuquerque Center
05:56PM 33.6603 -114.1492 278° West 434 499 31,600 600 Climbing Albuquerque Center
05:57PM 33.6736 -114.2822 277° West 443 510 32,000 180 Climbing Albuquerque Center
05:58PM 33.6883 -114.4339 277° West 454 522 32,000  Level Albuquerque Center
05:59PM 33.7089 -114.6283 277° West 454 522 32,000  Level Los Angeles Center
06:00PM 33.7256 -114.8039 277° West 445 512 32,000 -60 Level Los Angeles Center
06:01PM 33.7392 -114.9514 276° West 444 511 31,900 -660 Descending Los Angeles Center
06:02PM 33.7533 -115.0994 277° West 447 514 30,700 -1,080 Descending Los Angeles Center
06:03PM 33.7683 -115.2489 277° West 450 518 29,700 -1,020 Descending Los Angeles Center
06:04PM 33.7800 -115.3947 276° West 442 509 28,700 -1,020 Descending Los Angeles Center
06:05PM 33.7939 -115.5386 277° West 437 503 27,700 -1,080 Descending Los Angeles Center
06:06PM 33.8092 -115.7075 276° West 426 490 26,500 -1,080 Descending Los Angeles Center
06:07PM 33.8217 -115.8483 276° West 425 489 25,500 -1,260 Descending Los Angeles Center
06:08PM 33.8325 -115.9903 275° West 428 493 24,000 -1,500 Descending Los Angeles Center
06:09PM 33.8456 -116.1328 276° West 431 496 22,400 -1,560 Descending Los Angeles Center
06:10PM 33.8567 -116.2708 276° West 413 475 20,800 -1,800 Descending Los Angeles Center
06:11PM 33.8703 -116.4269 276° West 394 453 18,700 -1,980 Descending Los Angeles Center
06:12PM 33.8764 -116.5528 273° West 381 438 16,800 -1,800 Descending Los Angeles Center
06:14PM 33.8822 -116.6772 273° West 376 433 15,000 -1,380 Descending Los Angeles Center
06:15PM 33.8886 -116.7969 274° West 366 421 14,000 -960 Descending Los Angeles Center
06:16PM 33.9058 -116.8950 282° West 312 359 13,100 -1,500 Descending Los Angeles Center
06:17PM 33.9411 -117.0072 291° West 299 344 11,000 -1,980 Descending Los Angeles Center
06:18PM 33.9833 -117.1167 295° West 298 343 8,800 -1,800 Descending Southern California TRACON
06:19PM 34.0000 -117.2000 284° West 290 334 7,100 -1,800 Descending Southern California TRACON
06:20PM 34.0333 -117.3000 292° West 280 322 5,200 -1,500 Descending Southern California TRACON
06:21PM 34.0500 -117.3667 287° West 268 308 4,300 -840 Descending Southern California TRACON
06:22PM 34.0500 -117.4500 270° West 199 229 3,600 -960 Descending Southern California TRACON
06:23PM 34.0500 -117.5167 270° West 175 201 2,300 -1,140 Descending Southern California TRACON
06:24PM 34.0500 -117.5667 270° West 139 160 1,400 -900 Descending Southern California TRACON